Time;durP1;ratioP1;P1;durP2;ratioP2;P2;SDS_P1;SDS_P2;PMS_P1;PMS_P2;Temp;Humidity;BMP_temperature;BMP_pressure;BME280_temperature;BME280_humidity;BME280_pressure;Samples;Min_cycle;Max_cycle;Signal;HPM_P1;HPM_P2
2021/04/16 00:01:02;;;;;;;1.97;1.40;;;6.70;1.00;;;;;;4996942;28;20217;-66
2021/04/16 00:03:29;;;;;;;3.77;1.40;;;6.60;1.00;;;;;;4996822;28;20270;-64
2021/04/16 00:05:55;;;;;;;1.80;1.10;;;6.50;1.00;;;;;;4996869;28;20206;-63
2021/04/16 00:08:30;;;;;;;2.47;1.47;;;6.40;1.00;;;;;;4996775;28;20533;-63
2021/04/16 00:11:06;;;;;;;2.05;1.85;;;6.60;1.00;;;;;;4996751;28;20516;-63
2021/04/16 00:13:33;;;;;;;1.88;1.38;;;6.40;1.00;;;;;;5012231;28;20276;-63
2021/04/16 00:15:59;;;;;;;3.20;1.02;;;6.40;1.00;;;;;;4997309;28;20197;-65
2021/04/16 00:18:28;;;;;;;3.08;1.17;;;6.40;1.00;;;;;;4995807;28;20682;-62
2021/04/16 00:20:55;;;;;;;3.72;1.33;;;6.40;1.00;;;;;;4996475;28;20232;-62
2021/04/16 00:23:20;;;;;;;1.90;1.35;;;6.30;1.00;;;;;;4996236;28;20222;-65
2021/04/16 00:25:47;;;;;;;1.60;1.50;;;6.40;1.00;;;;;;4996331;28;20190;-65
2021/04/16 00:28:14;;;;;;;2.83;1.25;;;6.30;1.00;;;;;;4996258;28;20631;-66
2021/04/16 00:31:11;;;;;;;3.05;1.42;;;6.20;1.00;;;;;;4996329;28;20195;-65
2021/04/16 00:33:36;;;;;;;3.13;1.23;;;6.30;1.00;;;;;;4991229;28;20526;-65
2021/04/16 00:36:02;;;;;;;2.47;1.17;;;6.10;1.00;;;;;;4996275;28;20186;-65
2021/04/16 00:38:27;;;;;;;1.70;1.00;;;6.10;1.00;;;;;;4996164;28;20261;-65
2021/04/16 00:40:57;;;;;;;2.07;1.43;;;6.20;1.00;;;;;;4995952;28;20221;-65
2021/04/16 00:43:24;;;;;;;1.40;1.30;;;6.20;1.00;;;;;;4995780;28;20622;-62
2021/04/16 00:46:12;;;;;;;2.53;1.48;;;6.10;1.00;;;;;;4995986;28;20212;-62
2021/04/16 00:48:39;;;;;;;1.90;1.30;;;6.10;1.00;;;;;;4996208;28;20251;-65
2021/04/16 00:51:07;;;;;;;1.25;1.15;;;6.10;1.00;;;;;;4995951;28;20187;-65
2021/04/16 00:53:34;;;;;;;1.30;1.15;;;6.10;1.00;;;;;;4995730;28;20561;-65
2021/04/16 00:56:00;;;;;;;5.38;1.38;;;6.10;1.00;;;;;;4995819;28;20195;-65
2021/04/16 00:58:30;;;;;;;3.93;1.43;;;5.90;1.00;;;;;;4995678;28;20501;-65
2021/04/16 01:00:57;;;;;;;3.67;1.60;;;6.00;1.00;;;;;;4995708;28;20475;-65
2021/04/16 01:03:24;;;;;;;1.48;1.35;;;6.00;1.00;;;;;;4995685;28;20232;-65
2021/04/16 01:06:01;;;;;;;2.75;1.50;;;6.10;1.00;;;;;;4995401;28;20551;-65
2021/04/16 01:08:26;;;;;;;2.55;1.48;;;6.00;1.00;;;;;;4995499;28;20199;-65
2021/04/16 01:10:53;;;;;;;3.67;1.83;;;6.10;1.00;;;;;;4995437;28;20695;-65
2021/04/16 01:13:21;;;;;;;2.42;1.67;;;6.00;1.00;;;;;;4995063;28;20190;-65
2021/04/16 01:15:53;;;;;;;3.25;1.85;;;6.00;1.00;;;;;;4995279;28;20195;-65
2021/04/16 01:18:23;;;;;;;2.20;1.17;;;5.90;1.00;;;;;;4995419;28;20257;-65
2021/04/16 01:20:51;;;;;;;2.35;1.85;;;5.90;1.00;;;;;;4995289;28;20213;-65
2021/04/16 01:23:47;;;;;;;4.90;1.60;;;6.00;1.00;;;;;;4995060;28;20197;-65
2021/04/16 01:26:18;;;;;;;1.85;1.50;;;6.20;1.00;;;;;;4992862;28;20671;-65
2021/04/16 01:28:44;;;;;;;2.58;1.65;;;6.20;1.00;;;;;;4995250;28;20217;-65
2021/04/16 01:31:13;;;;;;;3.87;1.60;;;6.10;1.00;;;;;;4995073;28;20182;-65
2021/04/16 01:33:40;;;;;;;2.67;2.47;;;6.10;1.00;;;;;;4994819;28;20437;-65
2021/04/16 01:36:08;;;;;;;1.48;1.23;;;6.10;1.00;;;;;;4994968;28;20187;-65
2021/04/16 01:38:34;;;;;;;3.00;1.65;;;6.10;1.00;;;;;;4993941;28;20180;-65
2021/04/16 01:41:00;;;;;;;3.20;1.60;;;6.50;1.00;;;;;;4994830;28;20217;-65
2021/04/16 01:43:30;;;;;;;2.50;1.70;;;6.50;1.00;;;;;;4994582;28;20429;-65
2021/04/16 01:46:07;;;;;;;7.43;1.67;;;6.20;1.00;;;;;;4994926;28;20496;-65
2021/04/16 01:48:44;;;;;;;2.08;1.60;;;6.30;1.00;;;;;;4994823;28;20200;-65
2021/04/16 01:51:13;;;;;;;1.50;1.30;;;6.20;1.00;;;;;;4994892;28;20196;-65
2021/04/16 01:53:39;;;;;;;2.30;2.10;;;6.10;1.00;;;;;;4994589;28;20186;-65
2021/04/16 01:56:06;;;;;;;4.05;2.20;;;6.00;1.00;;;;;;4994742;28;20182;-65
2021/04/16 01:58:32;;;;;;;3.60;1.98;;;5.70;1.00;;;;;;4994794;28;20197;-65
2021/04/16 02:00:58;;;;;;;4.90;2.50;;;5.60;87.90;;;;;;4994691;28;20202;-65
2021/04/16 02:03:24;;;;;;;3.50;1.42;;;5.60;99.90;;;;;;5009827;28;20427;-65
2021/04/16 02:05:50;;;;;;;4.07;2.47;;;5.70;99.90;;;;;;4994679;28;20212;-65
2021/04/16 02:08:15;;;;;;;7.00;1.90;;;5.70;99.90;;;;;;4994665;28;20178;-65
2021/04/16 02:10:43;;;;;;;2.43;1.70;;;5.70;99.90;;;;;;4994543;28;20252;-65
2021/04/16 02:13:08;;;;;;;5.88;3.75;;;5.70;99.90;;;;;;4994466;28;20557;-65
2021/04/16 02:15:34;;;;;;;3.30;1.80;;;5.70;1.00;;;;;;4994523;28;20240;-65
2021/04/16 02:17:59;;;;;;;2.77;1.70;;;5.80;1.00;;;;;;4994038;28;20184;-65
2021/04/16 02:20:27;;;;;;;2.00;1.87;;;5.70;1.00;;;;;;4994533;28;20221;-66
2021/04/16 02:22:53;;;;;;;2.25;1.60;;;5.70;1.00;;;;;;5010272;28;20175;-65
2021/04/16 02:25:19;;;;;;;2.78;2.15;;;5.80;1.00;;;;;;4994191;28;20638;-65
2021/04/16 02:27:45;;;;;;;3.80;2.00;;;5.80;1.00;;;;;;4994486;28;20275;-65
2021/04/16 02:30:18;;;;;;;2.33;1.70;;;5.80;1.00;;;;;;4994426;28;20190;-65
2021/04/16 02:32:43;;;;;;;11.60;2.35;;;5.80;1.00;;;;;;4994320;28;20277;-65
2021/04/16 02:35:10;;;;;;;2.07;1.87;;;6.00;1.00;;;;;;4994089;28;20336;-65
2021/04/16 02:37:36;;;;;;;4.50;2.45;;;5.90;1.00;;;;;;4994005;28;20182;-65
2021/04/16 02:40:05;;;;;;;3.07;2.53;;;5.90;1.00;;;;;;4994015;28;20218;-65
2021/04/16 02:42:30;;;;;;;2.65;1.48;;;6.20;1.00;;;;;;4993150;28;20588;-65
2021/04/16 02:44:56;;;;;;;7.97;2.27;;;6.20;99.90;;;;;;4993877;28;20684;-65
2021/04/16 02:47:21;;;;;;;3.50;2.10;;;5.90;99.90;;;;;;4994189;28;20181;-65
2021/04/16 02:49:47;;;;;;;3.20;1.60;;;5.70;99.90;;;;;;4994023;28;20183;-65
2021/04/16 02:52:13;;;;;;;3.57;1.90;;;5.80;1.00;;;;;;4994081;28;20268;-65
2021/04/16 02:54:38;;;;;;;3.13;1.90;;;5.80;1.00;;;;;;4993888;28;20194;-65
2021/04/16 02:57:04;;;;;;;1.90;1.67;;;6.00;1.00;;;;;;4994139;28;20556;-65
2021/04/16 02:59:31;;;;;;;3.67;2.25;;;6.10;99.90;;;;;;4994069;28;20548;-65
2021/04/16 03:01:57;;;;;;;6.72;2.08;;;5.90;99.90;;;;;;4994238;28;20191;-65
2021/04/16 03:04:23;;;;;;;3.60;2.05;;;5.80;99.90;;;;;;4993998;28;20181;-62
2021/04/16 03:06:48;;;;;;;4.47;1.97;;;5.70;1.00;;;;;;4994080;28;20185;-63
2021/04/16 03:09:14;;;;;;;5.80;2.37;;;5.80;1.00;;;;;;4994025;28;20269;-63
2021/04/16 03:11:40;;;;;;;2.78;2.08;;;5.90;1.00;;;;;;4994243;28;20182;-63
2021/04/16 03:14:06;;;;;;;3.40;2.00;;;5.80;99.90;;;;;;4993904;28;20250;-62
2021/04/16 03:16:33;;;;;;;3.38;1.80;;;5.70;99.90;;;;;;5009415;28;20179;-62
2021/04/16 03:19:00;;;;;;;2.38;2.10;;;5.80;1.00;;;;;;4994034;28;20177;-65
2021/04/16 03:21:27;;;;;;;5.22;2.42;;;5.80;99.90;;;;;;4993947;28;20220;-65
2021/04/16 03:23:53;;;;;;;4.20;2.30;;;5.80;99.90;;;;;;4993050;28;20270;-66
2021/04/16 03:26:19;;;;;;;3.67;1.70;;;5.70;99.90;;;;;;4993774;28;20245;-65
2021/04/16 03:28:44;;;;;;;3.33;2.10;;;5.70;99.90;;;;;;4994363;28;20497;-66
2021/04/16 03:31:11;;;;;;;2.20;2.00;;;5.80;99.90;;;;;;4997620;28;20888;-65
2021/04/16 03:33:37;;;;;;;3.38;2.60;;;5.80;99.90;;;;;;4996188;28;20522;-66
2021/04/16 03:36:03;;;;;;;5.93;1.90;;;5.70;99.90;;;;;;4997273;28;20348;-66
2021/04/16 03:38:28;;;;;;;7.50;2.27;;;5.70;99.90;;;;;;4997535;28;20617;-66
2021/04/16 03:40:54;;;;;;;2.63;1.90;;;5.60;99.90;;;;;;4997209;28;20475;-66
2021/04/16 03:43:20;;;;;;;3.13;2.13;;;5.60;1.00;;;;;;4997032;28;20283;-67
2021/04/16 03:45:45;;;;;;;2.70;2.33;;;5.70;1.00;;;;;;4997404;28;20560;-66
2021/04/16 03:48:11;;;;;;;3.47;2.23;;;5.50;99.90;;;;;;4997361;28;20673;-66
2021/04/16 03:50:37;;;;;;;3.03;2.20;;;5.30;1.00;;;;;;4997192;28;20193;-66
2021/04/16 03:53:04;;;;;;;2.75;2.10;;;5.40;1.00;;;;;;4996990;28;20197;-66
2021/04/16 03:55:32;;;;;;;4.55;1.98;;;5.30;1.00;;;;;;4996898;28;20275;-66
2021/04/16 03:57:59;;;;;;;3.13;2.00;;;5.40;1.00;;;;;;4997067;28;20193;-66
2021/04/16 04:00:30;;;;;;;3.17;2.42;;;5.60;99.90;;;;;;4995940;28;20216;-63
2021/04/16 04:02:56;;;;;;;3.10;2.30;;;5.40;99.90;;;;;;4996937;28;20195;-63
2021/04/16 04:05:22;;;;;;;5.43;2.50;;;5.40;99.90;;;;;;4995667;28;20187;-63
2021/04/16 04:07:47;;;;;;;2.75;2.40;;;5.30;99.90;;;;;;4996748;28;20460;-63
2021/04/16 04:10:14;;;;;;;3.40;2.07;;;5.20;1.00;;;;;;4997067;28;20213;-63
2021/04/16 04:12:39;;;;;;;3.10;2.60;;;5.20;1.00;;;;;;4996979;28;20180;-65
2021/04/16 04:15:06;;;;;;;3.53;1.97;;;5.20;1.00;;;;;;4996478;28;20693;-65
2021/04/16 04:17:35;;;;;;;2.55;2.35;;;5.20;1.00;;;;;;4996488;28;20259;-65
2021/04/16 04:20:03;;;;;;;2.95;2.60;;;5.00;1.00;;;;;;4996692;28;20222;-65
2021/04/16 04:22:29;;;;;;;6.18;2.67;;;5.00;1.00;;;;;;4996630;28;20186;-65
2021/04/16 04:24:54;;;;;;;3.23;2.87;;;5.10;1.00;;;;;;4996262;28;20663;-65
2021/04/16 04:27:20;;;;;;;2.57;1.80;;;5.00;1.00;;;;;;4996531;28;20633;-65
2021/04/16 04:29:46;;;;;;;5.13;2.40;;;5.10;1.00;;;;;;4995958;28;20624;-65
2021/04/16 04:32:13;;;;;;;2.92;2.22;;;5.10;1.00;;;;;;4996216;28;20458;-66
2021/04/16 04:34:39;;;;;;;3.67;2.35;;;5.20;1.00;;;;;;4996078;28;20189;-65
2021/04/16 04:37:07;;;;;;;3.35;2.58;;;5.00;1.00;;;;;;4996349;28;20193;-65
2021/04/16 04:39:36;;;;;;;4.10;2.50;;;5.00;1.00;;;;;;4996076;28;20221;-65
2021/04/16 04:42:04;;;;;;;2.22;2.00;;;4.90;61.00;;;;;;4994513;28;20212;-65
2021/04/16 04:44:30;;;;;;;2.35;1.95;;;4.70;99.90;;;;;;4995836;28;20200;-65
2021/04/16 04:46:56;;;;;;;3.25;2.28;;;4.50;1.00;;;;;;4996082;28;20503;-65
2021/04/16 04:49:22;;;;;;;4.13;2.50;;;4.60;99.90;;;;;;4995911;28;20209;-65
2021/04/16 04:51:49;;;;;;;5.43;4.80;;;4.70;99.90;;;;;;4995994;28;20436;-65
2021/04/16 04:54:15;;;;;;;5.53;2.88;;;4.90;99.90;;;;;;4995991;28;20173;-66
2021/04/16 04:56:41;;;;;;;5.63;2.67;;;5.20;1.00;;;;;;4995755;28;20630;-65
2021/04/16 04:59:06;;;;;;;3.33;2.23;;;5.20;1.00;;;;;;4995725;28;20179;-66
2021/04/16 05:01:32;;;;;;;3.20;2.57;;;5.40;99.90;;;;;;4995645;28;20224;-66
2021/04/16 05:03:58;;;;;;;2.45;2.08;;;5.60;99.90;;;;;;4995418;28;20185;-65
2021/04/16 05:06:24;;;;;;;3.95;2.95;;;5.70;66.90;;;;;;4994581;28;20520;-66
2021/04/16 05:08:50;;;;;;;3.67;2.60;;;5.90;1.00;;;;;;4995563;28;20262;-66
2021/04/16 05:11:16;;;;;;;12.40;5.73;;;6.10;1.00;;;;;;4995570;28;20807;-65
2021/04/16 05:13:41;;;;;;;4.80;2.90;;;6.50;1.00;;;;;;4995305;28;20187;-66
2021/04/16 05:16:10;;;;;;;4.50;2.83;;;6.80;99.90;;;;;;4995229;28;20737;-66
2021/04/16 05:18:37;;;;;;;8.60;3.25;;;7.00;99.90;;;;;;4995447;28;20650;-68
2021/04/16 05:21:04;;;;;;;3.60;2.13;;;7.30;99.90;;;;;;4995257;28;20319;-66
2021/04/16 05:23:30;;;;;;;2.42;2.22;;;8.10;75.70;;;;;;4994899;28;20185;-66
2021/04/16 05:25:55;;;;;;;3.27;2.43;;;8.80;1.00;;;;;;5011178;28;20210;-67
2021/04/16 05:28:21;;;;;;;3.00;2.53;;;9.60;1.00;;;;;;4995131;28;20251;-66
2021/04/16 05:30:47;;;;;;;5.37;3.00;;;9.90;1.00;;;;;;4995560;28;20310;-66
2021/04/16 05:33:12;;;;;;;3.70;2.93;;;10.00;1.00;;;;;;4994938;28;20194;-66
2021/04/16 05:35:38;;;;;;;4.33;2.83;;;10.50;1.00;;;;;;4995015;28;20217;-66
2021/04/16 05:38:03;;;;;;;3.07;2.40;;;10.90;1.00;;;;;;4995111;28;20192;-66
2021/04/16 05:40:29;;;;;;;4.67;2.60;;;11.60;1.00;;;;;;4994964;28;20206;-66
2021/04/16 05:42:55;;;;;;;6.00;3.07;;;12.20;1.00;;;;;;4995028;28;20183;-66
2021/04/16 05:45:22;;;;;;;4.00;2.40;;;11.70;1.00;;;;;;4995237;28;20179;-66
2021/04/16 05:47:48;;;;;;;3.80;2.80;;;10.90;1.00;;;;;;4994911;28;20171;-66
2021/04/16 05:50:15;;;;;;;3.70;3.05;;;10.00;1.00;;;;;;5009965;28;20321;-66
2021/04/16 05:52:41;;;;;;;4.10;2.45;;;9.40;1.00;;;;;;4992805;28;20187;-66
2021/04/16 05:55:07;;;;;;;3.13;2.40;;;9.20;1.00;;;;;;4993190;28;20213;-65
2021/04/16 05:57:33;;;;;;;4.78;3.10;;;8.50;1.00;;;;;;4994870;28;20628;-66
2021/04/16 05:59:58;;;;;;;3.97;3.30;;;8.20;1.00;;;;;;4994446;28;20221;-65
2021/04/16 06:02:29;;;;;;;5.10;3.33;;;8.20;1.00;;;;;;4994655;28;20186;-65
2021/04/16 06:04:55;;;;;;;3.28;2.97;;;7.60;1.00;;;;;;4994357;28;20269;-66
2021/04/16 06:07:22;;;;;;;5.60;3.70;;;7.70;1.00;;;;;;4994585;28;20259;-65
2021/04/16 06:09:48;;;;;;;9.27;3.20;;;7.90;1.00;;;;;;4994448;28;20186;-65
2021/04/16 06:12:14;;;;;;;5.70;3.65;;;7.70;1.00;;;;;;4994373;28;20273;-66
2021/04/16 06:14:41;;;;;;;8.10;5.90;;;7.70;1.00;;;;;;4994214;28;20269;-65
2021/04/16 06:17:08;;;;;;;10.05;6.10;;;8.20;1.00;;;;;;4994366;28;20435;-65
2021/04/16 06:19:33;;;;;;;4.57;4.10;;;8.10;1.00;;;;;;4994143;28;20190;-66
2021/04/16 06:21:59;;;;;;;7.43;3.37;;;8.00;1.00;;;;;;4994368;28;20194;-65
2021/04/16 06:24:24;;;;;;;6.70;3.80;;;7.80;1.00;;;;;;4993983;28;20533;-65
2021/04/16 06:26:50;;;;;;;4.87;2.70;;;8.20;1.00;;;;;;4994217;28;20625;-65
2021/04/16 06:29:15;;;;;;;5.47;3.63;;;8.30;1.00;;;;;;4994035;28;20498;-65
2021/04/16 06:31:41;;;;;;;4.50;3.50;;;9.10;1.00;;;;;;4994221;28;20620;-66
2021/04/16 06:34:07;;;;;;;4.63;3.87;;;10.70;1.00;;;;;;4994192;28;20179;-66
2021/04/16 06:36:32;;;;;;;8.40;3.47;;;11.80;1.00;;;;;;4994015;28;20190;-66
2021/04/16 06:38:58;;;;;;;6.00;3.63;;;14.10;1.00;;;;;;4993018;28;20215;-66
2021/04/16 06:41:29;;;;;;;6.03;3.60;;;14.20;1.00;;;;;;4993887;28;20248;-66
2021/04/16 06:44:00;;;;;;;4.93;3.85;;;14.40;1.00;;;;;;4998708;28;20280;-64
2021/04/16 06:46:33;;;;;;;4.07;3.42;;;12.50;1.00;;;;;;4994144;28;20191;-65
2021/04/16 06:49:04;;;;;;;8.18;4.32;;;13.60;1.00;;;;;;4994181;28;20493;-65
2021/04/16 06:51:33;;;;;;;9.60;5.10;;;12.60;1.00;;;;;;4993904;28;20190;-65
2021/04/16 06:54:03;;;;;;;6.05;3.63;;;10.80;1.00;;;;;;5008637;28;20191;-64
2021/04/16 06:56:41;;;;;;;5.97;3.90;;;12.40;1.00;;;;;;4993847;28;20255;-64
2021/04/16 06:59:31;;;;;;;4.85;3.92;;;11.70;1.00;;;;;;4993632;28;20671;-64
2021/04/16 07:02:02;;;;;;;6.65;3.80;;;11.20;1.00;;;;;;4993583;28;20183;-65
2021/04/16 07:04:53;;;;;;;5.60;4.50;;;12.30;1.00;;;;;;4995333;28;20187;-66
2021/04/16 07:07:39;;;;;;;6.78;4.53;;;12.20;1.00;;;;;;4997901;28;20203;-65
2021/04/16 07:10:30;;;;;;;10.02;4.57;;;11.20;1.00;;;;;;4997492;28;20183;-65
2021/04/16 07:12:59;;;;;;;6.03;3.88;;;9.50;1.00;;;;;;4998238;28;20237;-64
2021/04/16 07:15:41;;;;;;;5.70;3.58;;;8.30;1.00;;;;;;4997289;28;20190;-64
2021/04/16 07:18:10;;;;;;;7.57;4.18;;;8.20;1.00;;;;;;4997406;28;20553;-64
2021/04/16 07:20:36;;;;;;;4.18;3.78;;;8.60;1.00;;;;;;4997762;28;20574;-64
2021/04/16 07:23:01;;;;;;;10.30;4.37;;;9.00;1.00;;;;;;4997281;28;20611;-64
2021/04/16 07:25:49;;;;;;;7.37;3.70;;;9.60;1.00;;;;;;4995637;28;20287;-66
2021/04/16 07:28:44;;;;;;;9.85;3.85;;;9.80;1.00;;;;;;4996405;28;20256;-66
2021/04/16 07:31:42;;;;;;;10.93;4.45;;;9.60;1.00;;;;;;4997163;28;20566;-66
2021/04/16 07:34:30;;;;;;;4.55;3.13;;;9.50;1.00;;;;;;5003738;28;20627;-67
2021/04/16 07:37:19;;;;;;;4.43;2.45;;;9.50;1.00;;;;;;5015459;28;20182;-68
2021/04/16 07:39:53;;;;;;;7.28;2.58;;;9.60;1.00;;;;;;5016887;28;20583;-66
2021/04/16 07:42:23;;;;;;;3.50;2.35;;;9.50;1.00;;;;;;5016829;28;20631;-66
2021/04/16 07:45:06;;;;;;;6.25;3.30;;;9.30;1.00;;;;;;5016344;28;20611;-66
2021/04/16 07:47:33;;;;;;;3.80;3.20;;;9.20;1.00;;;;;;5016561;28;20210;-66
2021/04/16 07:50:07;;;;;;;3.92;2.85;;;9.00;1.00;;;;;;5016326;28;20264;-66
2021/04/16 07:52:42;;;;;;;2.20;1.80;;;9.20;1.00;;;;;;5016205;28;20198;-66
2021/04/16 07:55:14;;;;;;;3.05;1.80;;;9.20;1.00;;;;;;5015897;28;20498;-65
2021/04/16 07:57:43;;;;;;;3.30;1.73;;;9.00;1.00;;;;;;5016284;28;20241;-66
2021/04/16 08:00:38;;;;;;;3.40;1.92;;;8.80;1.00;;;;;;5016249;28;20220;-66
2021/04/16 08:03:29;;;;;;;3.67;2.03;;;8.90;1.00;;;;;;5016249;28;20197;-65
2021/04/16 08:05:59;;;;;;;2.30;1.70;;;9.20;1.00;;;;;;5014247;28;20187;-65
2021/04/16 08:08:29;;;;;;;1.85;1.10;;;9.70;1.00;;;;;;5016874;28;20566;-65
2021/04/16 08:11:00;;;;;;;2.55;1.60;;;9.20;1.00;;;;;;5016603;28;20179;-66
2021/04/16 08:13:31;;;;;;;6.82;2.30;;;8.90;1.00;;;;;;5005890;28;20183;-65
2021/04/16 08:16:16;;;;;;;1.70;1.30;;;8.80;1.00;;;;;;5008597;28;20229;-67
2021/04/16 08:18:45;;;;;;;3.20;1.60;;;9.10;1.00;;;;;;5011654;28;20190;-68
2021/04/16 08:21:20;;;;;;;3.20;1.65;;;9.40;1.00;;;;;;5003885;28;20713;-68
2021/04/16 08:23:52;;;;;;;2.10;1.13;;;9.10;1.00;;;;;;4996261;28;20206;-68
2021/04/16 08:26:22;;;;;;;1.88;1.25;;;9.00;1.00;;;;;;4996121;28;20626;-67
2021/04/16 08:28:57;;;;;;;1.83;0.93;;;9.20;1.00;;;;;;4996417;28;20279;-67
2021/04/16 08:31:32;;;;;;;1.63;1.20;;;9.40;1.00;;;;;;5000673;28;20190;-67
2021/04/16 08:34:11;;;;;;;2.25;0.80;;;9.70;1.00;;;;;;5007159;28;20194;-68
2021/04/16 08:36:40;;;;;;;1.25;1.00;;;9.60;1.00;;;;;;5003152;28;20487;-69
2021/04/16 08:39:26;;;;;;;1.80;1.17;;;9.60;1.00;;;;;;4988507;28;20182;-68
2021/04/16 08:42:14;;;;;;;1.00;0.90;;;9.80;1.00;;;;;;4994577;28;20245;-68
2021/04/16 08:45:08;;;;;;;1.65;1.10;;;9.90;1.00;;;;;;4995618;28;20252;-68
2021/04/16 08:47:49;;;;;;;2.10;1.80;;;9.80;1.00;;;;;;5006821;28;20269;-68
2021/04/16 08:50:15;;;;;;;2.30;1.20;;;9.70;1.00;;;;;;4976355;28;20182;-69
2021/04/16 08:52:46;;;;;;;1.58;1.13;;;9.90;1.00;;;;;;4976943;28;20184;-68
2021/04/16 08:55:32;;;;;;;1.95;1.40;;;9.70;1.00;;;;;;4995566;28;20194;-65
2021/04/16 08:58:08;;;;;;;1.13;1.00;;;9.70;1.00;;;;;;4996073;28;20495;-66
2021/04/16 09:00:42;;;;;;;2.10;1.20;;;9.50;1.00;;;;;;4998296;28;20242;-66
2021/04/16 09:03:39;;;;;;;2.28;1.38;;;9.60;1.00;;;;;;5006260;28;20175;-66
2021/04/16 09:06:10;;;;;;;1.80;1.30;;;9.90;1.00;;;;;;5009607;28;20195;-68
2021/04/16 09:08:40;;;;;;;1.90;1.27;;;10.00;1.00;;;;;;4995682;28;20439;-67
2021/04/16 09:11:09;;;;;;;2.25;1.50;;;9.70;1.00;;;;;;5018601;28;20218;-67
2021/04/16 09:13:40;;;;;;;2.60;1.30;;;9.60;1.00;;;;;;5009479;28;20174;-67
2021/04/16 09:16:15;;;;;;;1.13;0.95;;;9.70;1.00;;;;;;5014754;28;20186;-67
2021/04/16 09:18:42;;;;;;;2.10;1.30;;;9.80;1.00;;;;;;5014809;28;20195;-68
2021/04/16 09:21:14;;;;;;;2.63;1.13;;;9.90;1.00;;;;;;5010466;28;20266;-67
2021/04/16 09:23:40;;;;;;;1.15;0.80;;;9.90;1.00;;;;;;5010331;28;20187;-68
2021/04/16 09:26:09;;;;;;;1.63;1.53;;;9.60;1.00;;;;;;5003031;28;20202;-68
2021/04/16 09:28:54;;;;;;;2.10;1.10;;;9.50;1.00;;;;;;4993949;28;20434;-68
2021/04/16 09:31:25;;;;;;;5.28;1.65;;;9.00;1.00;;;;;;5010452;28;20273;-66
2021/04/16 09:34:16;;;;;;;1.10;1.00;;;9.40;1.00;;;;;;4988467;28;20226;-66
2021/04/16 09:36:48;;;;;;;1.70;1.25;;;9.70;1.00;;;;;;5000102;28;20191;-67
2021/04/16 09:39:39;;;;;;;1.67;1.30;;;9.70;1.00;;;;;;4987695;28;20175;-66
2021/04/16 09:42:38;;;;;;;1.70;1.35;;;9.40;1.00;;;;;;4994533;28;20227;-63
2021/04/16 09:45:09;;;;;;;2.25;1.33;;;9.70;1.00;;;;;;4995785;28;20194;-62
2021/04/16 09:47:48;;;;;;;2.55;1.35;;;9.60;1.00;;;;;;4994989;28;20190;-62
2021/04/16 09:50:28;;;;;;;2.15;1.02;;;10.20;1.00;;;;;;4993086;28;20190;-63
2021/04/16 09:53:09;;;;;;;2.28;1.02;;;10.50;1.00;;;;;;4992460;28;20194;-62
2021/04/16 09:55:46;;;;;;;2.28;1.20;;;10.50;1.00;;;;;;4974504;28;20333;-59
2021/04/16 10:00:57;;;;;;;1.52;0.82;;;10.60;1.00;;;;;;4974097;28;20203;-59
2021/04/16 10:03:23;;;;;;;1.63;1.17;;;10.10;1.00;;;;;;4974362;28;20441;-59
2021/04/16 10:05:49;;;;;;;2.57;1.30;;;10.50;1.00;;;;;;4990160;28;20188;-59
2021/04/16 10:08:23;;;;;;;1.38;1.02;;;10.80;1.00;;;;;;4974216;28;20646;-59
2021/04/16 10:10:49;;;;;;;1.85;1.40;;;11.10;1.00;;;;;;4974779;28;20636;-59
2021/04/16 10:13:20;;;;;;;1.93;0.80;;;11.00;1.00;;;;;;4974793;28;20184;-59
2021/04/16 10:15:51;;;;;;;3.05;1.13;;;11.00;1.00;;;;;;4975132;28;20428;-59
2021/04/16 10:18:17;;;;;;;3.85;1.55;;;10.60;1.00;;;;;;4974941;28;20176;-59
2021/04/16 10:21:09;;;;;;;1.70;1.10;;;10.80;1.00;;;;;;4974680;28;20746;-58
2021/04/16 10:23:46;;;;;;;2.22;1.20;;;10.60;1.00;;;;;;4974540;28;20287;-58
2021/04/16 10:33:10;;;;;;;1.00;0.90;;;10.20;1.00;;;;;;4974763;28;20209;-59
2021/04/16 10:41:44;;;;;;;2.42;1.13;;;10.60;1.00;;;;;;4999855;28;20264;-61
2021/04/16 10:48:06;;;;;;;1.42;1.15;;;10.70;1.00;;;;;;5004851;28;20202;-61
2021/04/16 10:59:11;;;;;;;1.85;1.30;;;11.60;1.00;;;;;;5000581;28;20197;-60
2021/04/16 11:33:40;;;;;;;2.35;1.30;;;10.90;1.00;;;;;;4968294;28;20198;-66
2021/04/16 12:41:22;;;;;;;2.45;0.93;;;12.00;1.00;;;;;;4995905;28;20215;-61
2021/04/16 12:43:50;;;;;;;3.95;1.30;;;11.60;1.00;;;;;;4995586;28;20175;-62
2021/04/16 12:46:19;;;;;;;5.70;1.52;;;12.10;1.00;;;;;;4995386;28;20262;-61
2021/04/16 12:48:44;;;;;;;2.20;0.70;;;11.90;1.00;;;;;;4995706;28;20180;-63
2021/04/16 12:51:10;;;;;;;3.33;1.70;;;12.10;1.00;;;;;;4995575;28;20678;-63
2021/04/16 12:53:37;;;;;;;3.07;1.00;;;12.40;1.00;;;;;;4995269;28;20447;-63
2021/04/16 12:56:06;;;;;;;1.30;0.77;;;12.40;1.00;;;;;;4995030;28;20429;-61
2021/04/16 12:58:36;;;;;;;1.60;0.80;;;12.30;1.00;;;;;;4995143;28;20278;-61
2021/04/16 13:01:04;;;;;;;1.35;0.90;;;12.10;1.00;;;;;;4994800;28;20213;-61
2021/04/16 13:03:38;;;;;;;7.22;3.47;;;11.70;1.00;;;;;;4994744;28;20175;-63
2021/04/16 13:06:07;;;;;;;2.50;1.10;;;11.50;1.00;;;;;;4995335;28;20619;-60
2021/04/16 13:08:32;;;;;;;1.88;1.02;;;11.70;1.00;;;;;;4995651;28;20435;-61
2021/04/16 13:10:58;;;;;;;1.37;1.00;;;11.90;1.00;;;;;;4993960;28;20219;-61
2021/04/16 13:13:23;;;;;;;3.03;0.90;;;11.80;1.00;;;;;;4994848;28;20187;-62
2021/04/16 13:15:49;;;;;;;3.20;1.13;;;11.80;1.00;;;;;;4995163;28;20651;-61
2021/04/16 13:18:17;;;;;;;1.80;1.13;;;11.50;1.00;;;;;;4995096;28;20183;-63
2021/04/16 13:20:48;;;;;;;3.05;1.10;;;11.70;1.00;;;;;;4994885;28;20207;-63
2021/04/16 13:23:14;;;;;;;2.80;2.40;;;12.10;1.00;;;;;;4994995;28;20221;-64
2021/04/16 13:25:40;;;;;;;5.20;1.33;;;12.50;1.00;;;;;;4994689;28;20195;-61
2021/04/16 13:28:06;;;;;;;5.70;1.83;;;12.10;1.00;;;;;;4995168;28;20182;-61
2021/04/16 13:30:32;;;;;;;1.93;1.30;;;11.80;1.00;;;;;;4994958;28;20426;-62
2021/04/16 13:33:10;;;;;;;1.90;1.65;;;11.80;1.00;;;;;;4993637;28;20438;-63
2021/04/16 13:35:40;;;;;;;1.98;1.88;;;11.70;1.00;;;;;;4994708;28;20187;-62
2021/04/16 13:38:11;;;;;;;2.55;1.85;;;11.70;1.00;;;;;;4994526;28;20543;-62
2021/04/16 13:40:37;;;;;;;2.50;1.50;;;12.00;1.00;;;;;;4994562;28;20202;-63
2021/04/16 13:43:04;;;;;;;1.90;1.40;;;12.10;1.00;;;;;;4994722;28;20250;-62
2021/04/16 13:45:29;;;;;;;2.53;1.33;;;12.00;1.00;;;;;;4992975;28;20190;-62
2021/04/16 13:47:55;;;;;;;2.10;1.57;;;12.50;1.00;;;;;;4994797;28;20187;-62
2021/04/16 13:50:21;;;;;;;2.13;1.60;;;12.50;1.00;;;;;;4994538;28;20190;-63
2021/04/16 13:52:48;;;;;;;2.40;1.70;;;12.70;1.00;;;;;;4994247;28;20214;-64
2021/04/16 13:55:16;;;;;;;3.78;1.80;;;12.80;1.00;;;;;;4994577;28;20187;-64
2021/04/16 13:57:42;;;;;;;3.50;1.60;;;12.70;1.00;;;;;;4994468;28;20175;-63
2021/04/16 14:00:11;;;;;;;3.20;1.70;;;12.90;1.00;;;;;;4994662;28;20208;-62
2021/04/16 14:02:46;;;;;;;3.20;1.60;;;13.10;1.00;;;;;;4993923;28;20257;-61
2021/04/16 14:05:23;;;;;;;3.67;1.30;;;12.10;1.00;;;;;;4993073;28;20207;-63
2021/04/16 14:07:50;;;;;;;2.67;1.10;;;11.60;1.00;;;;;;4994333;28;20205;-63
2021/04/16 14:10:19;;;;;;;2.00;1.80;;;11.20;1.00;;;;;;4994519;28;20175;-64
2021/04/16 14:12:45;;;;;;;2.08;1.65;;;11.20;1.00;;;;;;4993986;28;20623;-64
2021/04/16 14:15:12;;;;;;;5.50;2.20;;;11.00;1.00;;;;;;4993802;28;20199;-61
2021/04/16 14:17:46;;;;;;;4.53;2.20;;;11.20;1.00;;;;;;4993954;28;20628;-63
2021/04/16 14:20:33;;;;;;;2.40;1.45;;;11.50;1.00;;;;;;4993872;28;20214;-59
2021/04/16 14:23:02;;;;;;;2.38;1.20;;;11.60;1.00;;;;;;4993699;28;20643;-62
2021/04/16 14:25:31;;;;;;;1.45;1.30;;;11.80;1.00;;;;;;4993718;28;20199;-60
2021/04/16 14:28:04;;;;;;;2.60;1.20;;;12.00;1.00;;;;;;4994150;28;20175;-64
2021/04/16 14:30:33;;;;;;;1.95;1.30;;;12.00;1.00;;;;;;4994794;28;20257;-61
2021/04/16 14:33:00;;;;;;;1.60;1.30;;;11.90;1.00;;;;;;4993970;28;20210;-62
2021/04/16 14:35:29;;;;;;;1.98;1.25;;;11.50;1.00;;;;;;4993656;28;20275;-61
2021/04/16 14:37:55;;;;;;;3.33;1.75;;;11.50;1.00;;;;;;4994166;28;20175;-60
2021/04/16 14:40:21;;;;;;;3.03;1.50;;;11.60;1.00;;;;;;4993667;28;20521;-62
2021/04/16 14:42:48;;;;;;;6.53;1.83;;;11.70;1.00;;;;;;4993717;28;20925;-61
2021/04/16 14:45:22;;;;;;;1.70;1.10;;;11.70;1.00;;;;;;4994122;28;20211;-60
2021/04/16 14:47:48;;;;;;;2.30;1.20;;;11.40;1.00;;;;;;4993797;28;20233;-60
2021/04/16 14:50:16;;;;;;;2.83;1.00;;;11.10;1.00;;;;;;4991420;28;20182;-60
2021/04/16 14:52:43;;;;;;;1.40;1.30;;;11.10;1.00;;;;;;4992359;28;20190;-60
2021/04/16 14:55:36;;;;;;;2.10;1.00;;;11.30;1.00;;;;;;4992659;28;20187;-60
2021/04/16 14:58:03;;;;;;;1.33;0.95;;;11.20;1.00;;;;;;4991549;28;20207;-60
2021/04/16 15:00:31;;;;;;;2.10;1.20;;;11.20;1.00;;;;;;4991960;28;20222;-61
2021/04/16 15:02:58;;;;;;;1.30;0.82;;;11.20;1.00;;;;;;4992346;28;20195;-61
2021/04/16 15:05:24;;;;;;;1.30;1.10;;;11.20;1.00;;;;;;4993480;28;20237;-64
2021/04/16 15:07:55;;;;;;;3.42;1.02;;;11.10;1.00;;;;;;4993076;28;20197;-65
2021/04/16 15:10:30;;;;;;;2.10;1.20;;;11.40;1.00;;;;;;4993737;28;20183;-65
2021/04/16 15:12:58;;;;;;;3.60;1.23;;;11.50;1.00;;;;;;4993715;28;20198;-64
2021/04/16 15:15:30;;;;;;;3.70;1.50;;;11.20;1.00;;;;;;4991891;28;20532;-64
2021/04/16 15:17:55;;;;;;;2.70;1.02;;;11.40;1.00;;;;;;4993717;28;20250;-64
2021/04/16 15:20:25;;;;;;;1.10;0.80;;;11.40;1.00;;;;;;4993798;28;20651;-64
2021/04/16 15:22:51;;;;;;;1.45;0.98;;;11.10;1.00;;;;;;4993513;28;20211;-65